Portada
METAR-TAF:

Aeropuertos :

Chichén Itzá, México

Aeropuerto Internacional de Kaua

latitud: 20-38-30N, longitud: 088-26-58W, altitud: 31 m

Observación

El informe se hizo hace 19 minutos, a las 21:41 UTC
Viento calma
Temperatura 23°C
Humedad 73%
Presión 1019 hPa
Visibilidad: 12.9 km
Cielo cubierto a una altura de 1500 ft

METAR: MMCT 052141Z 00000KT 8SM OVC015 23/18 A3010 RMK 8/5// MSGTX MMMD

Hora: 16:00 (22:00 UTC)


TAF: falta

METAR-TAF

Observaciones y pronósticos meteorológicos de más de 4000 aeropuertos (mensajes METAR y TAF).

Los puntos amarillos y rojos representan las estaciones disponibles.

Ponga el ratón en el punto deseado para ver el nombre de la estación.

Haga clic para ver las observaciones y los pronósticos meteorológicos.

Para cambiar el mapa : haga clic en los botones verdes con una cruz de color negro para hacer un zoom, en el botón verde con un guión para alejar o en las flechas verdes para mapas adyacentes.


METAR-TAF: